sensor_id;sensor_type;location;lat;lon;timestamp;pressure;altitude;pressure_sealevel;temperature
61595;BMP280;47397;48.194;11.632;2023-07-13T00:00:42;95917.34;;;19.31
61595;BMP280;47397;48.194;11.632;2023-07-13T00:01:42;95917.41;;;19.15
61595;BMP280;47397;48.194;11.632;2023-07-13T00:02:42;95918.88;;;19.05
61595;BMP280;47397;48.194;11.632;2023-07-13T00:03:44;95909.94;;;19.11
61595;BMP280;47397;48.194;11.632;2023-07-13T00:04:45;95910.25;;;18.90
61595;BMP280;47397;48.194;11.632;2023-07-13T00:05:46;95906.00;;;19.05
61595;BMP280;47397;48.194;11.632;2023-07-13T00:06:47;95902.84;;;19.00
61595;BMP280;47397;48.194;11.632;2023-07-13T00:07:47;95908.50;;;18.91
61595;BMP280;47397;48.194;11.632;2023-07-13T00:08:48;95904.69;;;18.98
61595;BMP280;47397;48.194;11.632;2023-07-13T00:09:48;95899.34;;;19.01
61595;BMP280;47397;48.194;11.632;2023-07-13T00:10:51;95901.19;;;18.99
61595;BMP280;47397;48.194;11.632;2023-07-13T00:11:56;95903.25;;;18.92
61595;BMP280;47397;48.194;11.632;2023-07-13T00:12:57;95898.00;;;18.94
61595;BMP280;47397;48.194;11.632;2023-07-13T00:13:57;95899.97;;;18.74
61595;BMP280;47397;48.194;11.632;2023-07-13T00:14:59;95897.38;;;18.90
61595;BMP280;47397;48.194;11.632;2023-07-13T00:16:00;95892.88;;;18.94
61595;BMP280;47397;48.194;11.632;2023-07-13T00:17:00;95888.41;;;18.97
61595;BMP280;47397;48.194;11.632;2023-07-13T00:18:01;95882.25;;;19.00
61595;BMP280;47397;48.194;11.632;2023-07-13T00:19:03;95878.38;;;19.07
61595;BMP280;47397;48.194;11.632;2023-07-13T00:20:05;95882.72;;;19.07
61595;BMP280;47397;48.194;11.632;2023-07-13T00:21:06;95884.06;;;18.98
61595;BMP280;47397;48.194;11.632;2023-07-13T00:22:06;95878.75;;;19.01
61595;BMP280;47397;48.194;11.632;2023-07-13T00:23:07;95884.72;;;19.01
61595;BMP280;47397;48.194;11.632;2023-07-13T00:24:09;95890.16;;;18.97
61595;BMP280;47397;48.194;11.632;2023-07-13T00:25:11;95891.06;;;18.80
61595;BMP280;47397;48.194;11.632;2023-07-13T00:26:12;95898.16;;;18.77
61595;BMP280;47397;48.194;11.632;2023-07-13T00:27:12;95896.22;;;18.80
61595;BMP280;47397;48.194;11.632;2023-07-13T00:28:13;95892.38;;;18.87
61595;BMP280;47397;48.194;11.632;2023-07-13T00:29:13;95897.97;;;18.80
61595;BMP280;47397;48.194;11.632;2023-07-13T00:30:14;95893.81;;;18.77
61595;BMP280;47397;48.194;11.632;2023-07-13T00:31:15;95899.41;;;18.69
61595;BMP280;47397;48.194;11.632;2023-07-13T00:32:15;95897.22;;;18.78
61595;BMP280;47397;48.194;11.632;2023-07-13T00:33:15;95893.47;;;18.83
61595;BMP280;47397;48.194;11.632;2023-07-13T00:34:17;95889.25;;;18.82
61595;BMP280;47397;48.194;11.632;2023-07-13T00:35:18;95888.50;;;18.80
61595;BMP280;47397;48.194;11.632;2023-07-13T00:36:19;95887.16;;;18.89
61595;BMP280;47397;48.194;11.632;2023-07-13T00:37:19;95893.22;;;18.88
61595;BMP280;47397;48.194;11.632;2023-07-13T00:38:20;95902.03;;;18.84
61595;BMP280;47397;48.194;11.632;2023-07-13T00:39:20;95905.34;;;18.86
61595;BMP280;47397;48.194;11.632;2023-07-13T00:40:21;95898.88;;;18.79
61595;BMP280;47397;48.194;11.632;2023-07-13T00:41:21;95904.59;;;18.84
61595;BMP280;47397;48.194;11.632;2023-07-13T00:42:22;95911.78;;;18.79
61595;BMP280;47397;48.194;11.632;2023-07-13T00:43:24;95904.88;;;18.79
61595;BMP280;47397;48.194;11.632;2023-07-13T00:44:25;95905.69;;;18.80
61595;BMP280;47397;48.194;11.632;2023-07-13T00:46:13;95902.34;;;18.93
61595;BMP280;47397;48.194;11.632;2023-07-13T00:47:14;95899.66;;;18.95
61595;BMP280;47397;48.194;11.632;2023-07-13T00:48:18;95904.25;;;18.90
61595;BMP280;47397;48.194;11.632;2023-07-13T00:49:22;95906.53;;;18.80
61595;BMP280;47397;48.194;11.632;2023-07-13T00:50:23;95902.94;;;18.83
61595;BMP280;47397;48.194;11.632;2023-07-13T00:51:30;95903.28;;;18.77
61595;BMP280;47397;48.194;11.632;2023-07-13T00:52:31;95906.84;;;18.90
61595;BMP280;47397;48.194;11.632;2023-07-13T00:53:32;95899.84;;;18.92
61595;BMP280;47397;48.194;11.632;2023-07-13T00:54:35;95902.94;;;18.98
61595;BMP280;47397;48.194;11.632;2023-07-13T00:55:36;95900.69;;;18.92
61595;BMP280;47397;48.194;11.632;2023-07-13T00:56:38;95903.16;;;18.94
61595;BMP280;47397;48.194;11.632;2023-07-13T00:57:39;95897.38;;;18.90
61595;BMP280;47397;48.194;11.632;2023-07-13T00:58:40;95898.78;;;18.96
61595;BMP280;47397;48.194;11.632;2023-07-13T00:59:43;95898.25;;;18.75
61595;BMP280;47397;48.194;11.632;2023-07-13T01:00:47;95905.53;;;18.83
61595;BMP280;47397;48.194;11.632;2023-07-13T01:01:48;95910.94;;;18.78
61595;BMP280;47397;48.194;11.632;2023-07-13T01:02:49;95911.59;;;18.82
61595;BMP280;47397;48.194;11.632;2023-07-13T01:03:50;95908.94;;;18.83
61595;BMP280;47397;48.194;11.632;2023-07-13T01:04:51;95907.66;;;18.90
61595;BMP280;47397;48.194;11.632;2023-07-13T01:05:52;95902.19;;;18.96
61595;BMP280;47397;48.194;11.632;2023-07-13T01:06:53;95897.50;;;19.03
61595;BMP280;47397;48.194;11.632;2023-07-13T01:07:54;95892.22;;;18.90
61595;BMP280;47397;48.194;11.632;2023-07-13T01:08:56;95883.84;;;18.87
61595;BMP280;47397;48.194;11.632;2023-07-13T01:09:57;95885.19;;;18.78
61595;BMP280;47397;48.194;11.632;2023-07-13T01:10:58;95877.94;;;18.85
61595;BMP280;47397;48.194;11.632;2023-07-13T01:11:59;95879.16;;;18.93
61595;BMP280;47397;48.194;11.632;2023-07-13T01:12:59;95880.06;;;18.92
61595;BMP280;47397;48.194;11.632;2023-07-13T01:13:59;95882.97;;;18.72
61595;BMP280;47397;48.194;11.632;2023-07-13T01:15:01;95884.53;;;18.74
61595;BMP280;47397;48.194;11.632;2023-07-13T01:16:04;95880.03;;;18.78
61595;BMP280;47397;48.194;11.632;2023-07-13T01:17:05;95876.81;;;18.59
61595;BMP280;47397;48.194;11.632;2023-07-13T01:18:07;95873.09;;;18.64
61595;BMP280;47397;48.194;11.632;2023-07-13T01:19:15;95865.03;;;18.70
61595;BMP280;47397;48.194;11.632;2023-07-13T01:20:19;95853.06;;;18.69
61595;BMP280;47397;48.194;11.632;2023-07-13T01:21:21;95866.94;;;18.67
61595;BMP280;47397;48.194;11.632;2023-07-13T01:22:21;95878.63;;;18.72
61595;BMP280;47397;48.194;11.632;2023-07-13T01:23:22;95858.91;;;18.87
61595;BMP280;47397;48.194;11.632;2023-07-13T01:24:23;95868.38;;;18.87
61595;BMP280;47397;48.194;11.632;2023-07-13T01:25:23;95865.34;;;18.94
61595;BMP280;47397;48.194;11.632;2023-07-13T01:26:24;95860.38;;;18.91
61595;BMP280;47397;48.194;11.632;2023-07-13T01:27:25;95864.53;;;18.94
61595;BMP280;47397;48.194;11.632;2023-07-13T01:28:27;95856.97;;;18.91
61595;BMP280;47397;48.194;11.632;2023-07-13T01:29:28;95854.13;;;18.95
61595;BMP280;47397;48.194;11.632;2023-07-13T01:30:29;95856.06;;;18.92
61595;BMP280;47397;48.194;11.632;2023-07-13T01:31:29;95855.88;;;18.95
61595;BMP280;47397;48.194;11.632;2023-07-13T01:32:29;95852.44;;;18.96
61595;BMP280;47397;48.194;11.632;2023-07-13T01:33:30;95857.41;;;18.99
61595;BMP280;47397;48.194;11.632;2023-07-13T01:34:31;95849.84;;;18.96
61595;BMP280;47397;48.194;11.632;2023-07-13T01:35:31;95846.69;;;18.91
61595;BMP280;47397;48.194;11.632;2023-07-13T01:36:33;95847.50;;;18.91
61595;BMP280;47397;48.194;11.632;2023-07-13T01:37:33;95848.09;;;18.96
61595;BMP280;47397;48.194;11.632;2023-07-13T01:38:34;95845.34;;;18.99
61595;BMP280;47397;48.194;11.632;2023-07-13T01:39:35;95853.53;;;19.06
61595;BMP280;47397;48.194;11.632;2023-07-13T01:40:37;95849.03;;;19.10
61595;BMP280;47397;48.194;11.632;2023-07-13T01:41:38;95852.44;;;19.10
61595;BMP280;47397;48.194;11.632;2023-07-13T01:42:39;95853.91;;;19.14
61595;BMP280;47397;48.194;11.632;2023-07-13T01:43:39;95861.09;;;19.09
61595;BMP280;47397;48.194;11.632;2023-07-13T01:44:39;95859.78;;;19.02
61595;BMP280;47397;48.194;11.632;2023-07-13T01:45:40;95859.78;;;19.02
61595;BMP280;47397;48.194;11.632;2023-07-13T01:46:40;95866.25;;;19.09
61595;BMP280;47397;48.194;11.632;2023-07-13T01:47:41;95877.28;;;19.11
61595;BMP280;47397;48.194;11.632;2023-07-13T01:48:41;95879.03;;;19.11
61595;BMP280;47397;48.194;11.632;2023-07-13T01:49:41;95874.53;;;18.84
61595;BMP280;47397;48.194;11.632;2023-07-13T01:50:42;95875.84;;;18.91
61595;BMP280;47397;48.194;11.632;2023-07-13T01:51:44;95878.41;;;18.91
61595;BMP280;47397;48.194;11.632;2023-07-13T01:52:44;95883.47;;;18.93
61595;BMP280;47397;48.194;11.632;2023-07-13T01:53:44;95888.63;;;18.93
61595;BMP280;47397;48.194;11.632;2023-07-13T01:54:45;95881.50;;;18.98
61595;BMP280;47397;48.194;11.632;2023-07-13T01:55:45;95883.72;;;19.04
61595;BMP280;47397;48.194;11.632;2023-07-13T01:56:46;95890.72;;;19.02
61595;BMP280;47397;48.194;11.632;2023-07-13T01:57:46;95880.81;;;18.94
61595;BMP280;47397;48.194;11.632;2023-07-13T01:58:47;95884.94;;;18.83
61595;BMP280;47397;48.194;11.632;2023-07-13T01:59:47;95890.19;;;18.95
61595;BMP280;47397;48.194;11.632;2023-07-13T02:00:48;95889.25;;;18.82
61595;BMP280;47397;48.194;11.632;2023-07-13T02:01:49;95895.31;;;18.81
61595;BMP280;47397;48.194;11.632;2023-07-13T02:02:49;95887.41;;;18.84
61595;BMP280;47397;48.194;11.632;2023-07-13T02:03:49;95892.66;;;18.83
61595;BMP280;47397;48.194;11.632;2023-07-13T02:04:50;95884.75;;;18.86
61595;BMP280;47397;48.194;11.632;2023-07-13T02:05:50;95883.38;;;18.94
61595;BMP280;47397;48.194;11.632;2023-07-13T02:06:52;95884.41;;;18.92
61595;BMP280;47397;48.194;11.632;2023-07-13T02:07:52;95886.22;;;18.90
61595;BMP280;47397;48.194;11.632;2023-07-13T02:08:53;95884.56;;;18.89
61595;BMP280;47397;48.194;11.632;2023-07-13T02:09:54;95885.38;;;18.75
61595;BMP280;47397;48.194;11.632;2023-07-13T02:10:54;95883.19;;;18.83
61595;BMP280;47397;48.194;11.632;2023-07-13T02:11:55;95881.44;;;18.84
61595;BMP280;47397;48.194;11.632;2023-07-13T02:12:55;95883.09;;;18.85
61595;BMP280;47397;48.194;11.632;2023-07-13T02:13:55;95884.00;;;18.84
61595;BMP280;47397;48.194;11.632;2023-07-13T02:14:56;95890.38;;;18.92
61595;BMP280;47397;48.194;11.632;2023-07-13T02:15:56;95883.19;;;18.83
61595;BMP280;47397;48.194;11.632;2023-07-13T02:16:56;95891.06;;;18.80
61595;BMP280;47397;48.194;11.632;2023-07-13T02:17:57;95893.75;;;18.79
61595;BMP280;47397;48.194;11.632;2023-07-13T02:18:58;95894.47;;;18.81
61595;BMP280;47397;48.194;11.632;2023-07-13T02:19:58;95886.31;;;18.88
61595;BMP280;47397;48.194;11.632;2023-07-13T02:20:59;95883.56;;;18.91
61595;BMP280;47397;48.194;11.632;2023-07-13T02:22:00;95892.31;;;18.89
61595;BMP280;47397;48.194;11.632;2023-07-13T02:23:01;95892.88;;;18.94
61595;BMP280;47397;48.194;11.632;2023-07-13T02:24:01;95889.38;;;18.95
61595;BMP280;47397;48.194;11.632;2023-07-13T02:25:02;95886.41;;;18.87
61595;BMP280;47397;48.194;11.632;2023-07-13T02:26:03;95892.47;;;18.86
61595;BMP280;47397;48.194;11.632;2023-07-13T02:27:04;95885.63;;;18.70
61595;BMP280;47397;48.194;11.632;2023-07-13T02:28:05;95895.56;;;18.77
61595;BMP280;47397;48.194;11.632;2023-07-13T02:29:05;95892.47;;;18.86
61595;BMP280;47397;48.194;11.632;2023-07-13T02:30:07;95895.06;;;18.86
61595;BMP280;47397;48.194;11.632;2023-07-13T02:31:09;95895.06;;;18.86
61595;BMP280;47397;48.194;11.632;2023-07-13T02:32:10;95904.13;;;18.77
61595;BMP280;47397;48.194;11.632;2023-07-13T02:33:10;95896.53;;;18.90
61595;BMP280;47397;48.194;11.632;2023-07-13T02:34:11;95903.53;;;18.88
61595;BMP280;47397;48.194;11.632;2023-07-13T02:35:11;95899.28;;;18.87
61595;BMP280;47397;48.194;11.632;2023-07-13T02:36:12;95903.69;;;18.85
61595;BMP280;47397;48.194;11.632;2023-07-13T02:37:14;95901.28;;;18.82
61595;BMP280;47397;48.194;11.632;2023-07-13T02:38:15;95904.78;;;18.81
61595;BMP280;47397;48.194;11.632;2023-07-13T02:39:15;95905.47;;;18.68
61595;BMP280;47397;48.194;11.632;2023-07-13T02:40:15;95905.88;;;18.77
61595;BMP280;47397;48.194;11.632;2023-07-13T02:41:16;95915.16;;;18.79
61595;BMP280;47397;48.194;11.632;2023-07-13T02:42:16;95914.16;;;18.82
61595;BMP280;47397;48.194;11.632;2023-07-13T02:43:17;95920.16;;;18.82
61595;BMP280;47397;48.194;11.632;2023-07-13T02:44:17;95918.31;;;18.84
61595;BMP280;47397;48.194;11.632;2023-07-13T02:45:18;95925.28;;;18.82
61595;BMP280;47397;48.194;11.632;2023-07-13T02:46:18;95921.53;;;18.88
61595;BMP280;47397;48.194;11.632;2023-07-13T02:47:18;95922.97;;;18.78
61595;BMP280;47397;48.194;11.632;2023-07-13T02:48:19;95931.78;;;18.73
61595;BMP280;47397;48.194;11.632;2023-07-13T02:49:19;95935.63;;;18.66
61595;BMP280;47397;48.194;11.632;2023-07-13T02:50:20;95937.84;;;18.72
61595;BMP280;47397;48.194;11.632;2023-07-13T02:51:20;95944.59;;;18.75
61595;BMP280;47397;48.194;11.632;2023-07-13T02:52:22;95943.94;;;18.71
61595;BMP280;47397;48.194;11.632;2023-07-13T02:53:22;95944.84;;;18.70
61595;BMP280;47397;48.194;11.632;2023-07-13T02:54:23;95941.09;;;18.76
61595;BMP280;47397;48.194;11.632;2023-07-13T02:55:23;95944.25;;;18.81
61595;BMP280;47397;48.194;11.632;2023-07-13T02:56:26;95944.94;;;18.69
61595;BMP280;47397;48.194;11.632;2023-07-13T02:57:26;95953.47;;;18.69
61595;BMP280;47397;48.194;11.632;2023-07-13T02:58:27;95945.41;;;18.60
61595;BMP280;47397;48.194;11.632;2023-07-13T02:59:27;95945.31;;;18.46
61595;BMP280;47397;48.194;11.632;2023-07-13T03:00:28;95945.22;;;18.47
61595;BMP280;47397;48.194;11.632;2023-07-13T03:01:28;95950.69;;;18.41
61595;BMP280;47397;48.194;11.632;2023-07-13T03:02:28;95942.91;;;18.42
61595;BMP280;47397;48.194;11.632;2023-07-13T03:03:29;95939.91;;;18.50
61595;BMP280;47397;48.194;11.632;2023-07-13T03:04:29;95943.97;;;18.38
61595;BMP280;47397;48.194;11.632;2023-07-13T03:05:30;95941.06;;;18.44
61595;BMP280;47397;48.194;11.632;2023-07-13T03:06:31;95939.91;;;18.50
61595;BMP280;47397;48.194;11.632;2023-07-13T03:07:32;95949.78;;;18.42
61595;BMP280;47397;48.194;11.632;2023-07-13T03:08:33;95941.75;;;18.32
61595;BMP280;47397;48.194;11.632;2023-07-13T03:09:34;95946.38;;;18.26
61595;BMP280;47397;48.194;11.632;2023-07-13T03:10:34;95941.06;;;18.29
61595;BMP280;47397;48.194;11.632;2023-07-13T03:11:35;95939.50;;;18.26
61595;BMP280;47397;48.194;11.632;2023-07-13T03:12:36;95936.34;;;18.21
61595;BMP280;47397;48.194;11.632;2023-07-13T03:13:36;95940.34;;;18.27
61595;BMP280;47397;48.194;11.632;2023-07-13T03:14:37;95944.41;;;18.31
61595;BMP280;47397;48.194;11.632;2023-07-13T03:15:37;95940.16;;;18.30
61595;BMP280;47397;48.194;11.632;2023-07-13T03:16:38;95936.94;;;18.26
61595;BMP280;47397;48.194;11.632;2023-07-13T03:17:38;95946.13;;;18.30
61595;BMP280;47397;48.194;11.632;2023-07-13T03:18:39;95937.44;;;18.33
61595;BMP280;47397;48.194;11.632;2023-07-13T03:19:39;95942.25;;;18.39
61595;BMP280;47397;48.194;11.632;2023-07-13T03:20:40;95952.38;;;18.26
61595;BMP280;47397;48.194;11.632;2023-07-13T03:21:40;95949.47;;;18.32
61595;BMP280;47397;48.194;11.632;2023-07-13T03:22:42;95953.84;;;18.30
61595;BMP280;47397;48.194;11.632;2023-07-13T03:23:42;95960.75;;;18.30
61595;BMP280;47397;48.194;11.632;2023-07-13T03:24:43;95954.53;;;18.34
61595;BMP280;47397;48.194;11.632;2023-07-13T03:25:44;95956.84;;;18.38
61595;BMP280;47397;48.194;11.632;2023-07-13T03:26:44;95955.34;;;18.34
61595;BMP280;47397;48.194;11.632;2023-07-13T03:27:45;95964.16;;;18.30
61595;BMP280;47397;48.194;11.632;2023-07-13T03:28:45;95967.47;;;18.32
61595;BMP280;47397;48.194;11.632;2023-07-13T03:29:46;95967.56;;;18.31
61595;BMP280;47397;48.194;11.632;2023-07-13T03:30:46;95961.16;;;18.38
61595;BMP280;47397;48.194;11.632;2023-07-13T03:31:47;95964.47;;;18.40
61595;BMP280;47397;48.194;11.632;2023-07-13T03:32:47;95961.81;;;18.41
61595;BMP280;47397;48.194;11.632;2023-07-13T03:33:48;95966.31;;;18.38
61595;BMP280;47397;48.194;11.632;2023-07-13T03:34:48;95962.00;;;18.38
61595;BMP280;47397;48.194;11.632;2023-07-13T03:35:48;95959.50;;;18.37
61595;BMP280;47397;48.194;11.632;2023-07-13T03:36:49;95959.91;;;18.29
61595;BMP280;47397;48.194;11.632;2023-07-13T03:37:51;95955.28;;;18.36
61595;BMP280;47397;48.194;11.632;2023-07-13T03:38:53;95953.53;;;18.36
61595;BMP280;47397;48.194;11.632;2023-07-13T03:39:54;95956.75;;;18.40
61595;BMP280;47397;48.194;11.632;2023-07-13T03:40:54;95954.53;;;18.34
61595;BMP280;47397;48.194;11.632;2023-07-13T03:41:55;95955.09;;;18.39
61595;BMP280;47397;48.194;11.632;2023-07-13T03:42:55;95954.28;;;18.38
61595;BMP280;47397;48.194;11.632;2023-07-13T03:43:55;95954.69;;;18.47
61595;BMP280;47397;48.194;11.632;2023-07-13T03:44:56;95954.03;;;18.43
61595;BMP280;47397;48.194;11.632;2023-07-13T03:45:56;95955.69;;;18.44
61595;BMP280;47397;48.194;11.632;2023-07-13T03:46:57;95960.66;;;18.47
61595;BMP280;47397;48.194;11.632;2023-07-13T03:47:57;95960.41;;;18.52
61595;BMP280;47397;48.194;11.632;2023-07-13T03:48:58;95962.31;;;18.48
61595;BMP280;47397;48.194;11.632;2023-07-13T03:49:58;95955.34;;;18.50
61595;BMP280;47397;48.194;11.632;2023-07-13T03:50:58;95966.63;;;18.48
61595;BMP280;47397;48.194;11.632;2023-07-13T03:51:59;95961.25;;;18.52
61595;BMP280;47397;48.194;11.632;2023-07-13T03:53:01;95964.06;;;18.48
61595;BMP280;47397;48.194;11.632;2023-07-13T03:54:01;95961.91;;;18.40
61595;BMP280;47397;48.194;11.632;2023-07-13T03:55:01;95958.19;;;18.46
61595;BMP280;47397;48.194;11.632;2023-07-13T03:56:02;95960.16;;;18.40
61595;BMP280;47397;48.194;11.632;2023-07-13T03:57:03;95968.56;;;18.28
61595;BMP280;47397;48.194;11.632;2023-07-13T03:58:26;95963.25;;;18.31
61595;BMP280;47397;48.194;11.632;2023-07-13T03:59:27;95963.06;;;18.34
61595;BMP280;47397;48.194;11.632;2023-07-13T04:00:28;95956.69;;;18.26
61595;BMP280;47397;48.194;11.632;2023-07-13T04:01:30;95960.91;;;18.27
61595;BMP280;47397;48.194;11.632;2023-07-13T04:02:30;95955.34;;;18.34
61595;BMP280;47397;48.194;11.632;2023-07-13T04:03:31;95963.81;;;18.36
61595;BMP280;47397;48.194;11.632;2023-07-13T04:04:32;95960.47;;;18.19
61595;BMP280;47397;48.194;11.632;2023-07-13T04:05:32;95963.19;;;18.16
61595;BMP280;47397;48.194;11.632;2023-07-13T04:06:33;95962.34;;;17.99
61595;BMP280;47397;48.194;11.632;2023-07-13T04:07:34;95963.78;;;18.05
61595;BMP280;47397;48.194;11.632;2023-07-13T04:08:36;95966.31;;;18.22
61595;BMP280;47397;48.194;11.632;2023-07-13T04:09:36;95969.28;;;18.30
61595;BMP280;47397;48.194;11.632;2023-07-13T04:10:37;95969.34;;;18.13
61595;BMP280;47397;48.194;11.632;2023-07-13T04:11:37;95964.19;;;18.13
61595;BMP280;47397;48.194;11.632;2023-07-13T04:12:39;95969.06;;;18.02
61595;BMP280;47397;48.194;11.632;2023-07-13T04:13:39;95969.25;;;17.99
61595;BMP280;47397;48.194;11.632;2023-07-13T04:14:39;95969.00;;;18.03
61595;BMP280;47397;48.194;11.632;2023-07-13T04:15:40;95973.06;;;18.07
61595;BMP280;47397;48.194;11.632;2023-07-13T04:16:40;95973.38;;;18.01
61595;BMP280;47397;48.194;11.632;2023-07-13T04:17:41;95976.22;;;18.12
61595;BMP280;47397;48.194;11.632;2023-07-13T04:18:41;95976.63;;;18.05
61595;BMP280;47397;48.194;11.632;2023-07-13T04:19:41;95972.16;;;18.08
61595;BMP280;47397;48.194;11.632;2023-07-13T04:20:42;95980.63;;;18.10
61595;BMP280;47397;48.194;11.632;2023-07-13T04:21:42;95987.00;;;18.03
61595;BMP280;47397;48.194;11.632;2023-07-13T04:22:43;95982.25;;;17.96
61595;BMP280;47397;48.194;11.632;2023-07-13T04:23:44;95978.38;;;18.04
61595;BMP280;47397;48.194;11.632;2023-07-13T04:24:45;95984.53;;;18.18
61595;BMP280;47397;48.194;11.632;2023-07-13T04:25:46;95992.03;;;18.22
61595;BMP280;47397;48.194;11.632;2023-07-13T04:26:46;95990.38;;;18.21
61595;BMP280;47397;48.194;11.632;2023-07-13T04:27:47;95985.91;;;18.25
61595;BMP280;47397;48.194;11.632;2023-07-13T04:28:47;95986.00;;;18.06
61595;BMP280;47397;48.194;11.632;2023-07-13T04:29:47;95988.97;;;17.98
61595;BMP280;47397;48.194;11.632;2023-07-13T04:30:48;95988.22;;;17.96
61595;BMP280;47397;48.194;11.632;2023-07-13T04:31:49;95982.44;;;18.08
61595;BMP280;47397;48.194;11.632;2023-07-13T04:32:50;95989.97;;;17.96
61595;BMP280;47397;48.194;11.632;2023-07-13T04:33:57;95987.47;;;17.94
61595;BMP280;47397;48.194;11.632;2023-07-13T04:34:57;95993.81;;;18.04
61595;BMP280;47397;48.194;11.632;2023-07-13T04:35:58;95992.56;;;18.11
61595;BMP280;47397;48.194;11.632;2023-07-13T04:36:58;95989.91;;;18.13
61595;BMP280;47397;48.194;11.632;2023-07-13T04:37:58;95993.72;;;18.06
61595;BMP280;47397;48.194;11.632;2023-07-13T04:39:00;95997.38;;;18.02
61595;BMP280;47397;48.194;11.632;2023-07-13T04:40:01;95994.88;;;18.00
61595;BMP280;47397;48.194;11.632;2023-07-13T04:41:05;95990.81;;;18.12
61595;BMP280;47397;48.194;11.632;2023-07-13T04:42:06;95990.91;;;18.10
61595;BMP280;47397;48.194;11.632;2023-07-13T04:43:06;95995.44;;;18.23
61595;BMP280;47397;48.194;11.632;2023-07-13T04:44:07;95989.50;;;18.21
61595;BMP280;47397;48.194;11.632;2023-07-13T04:45:08;95995.31;;;18.08
61595;BMP280;47397;48.194;11.632;2023-07-13T04:46:11;95999.94;;;18.02
61595;BMP280;47397;48.194;11.632;2023-07-13T04:47:11;95993.88;;;18.03
61595;BMP280;47397;48.194;11.632;2023-07-13T04:48:12;95997.38;;;18.02
61595;BMP280;47397;48.194;11.632;2023-07-13T04:49:12;95999.81;;;17.88
61595;BMP280;47397;48.194;11.632;2023-07-13T04:50:13;95999.28;;;17.98
61595;BMP280;47397;48.194;11.632;2023-07-13T04:51:14;95994.22;;;18.12
61595;BMP280;47397;48.194;11.632;2023-07-13T04:52:14;95993.25;;;18.15
61595;BMP280;47397;48.194;11.632;2023-07-13T04:53:15;96001.34;;;18.07
61595;BMP280;47397;48.194;11.632;2023-07-13T04:54:16;96000.59;;;18.05
61595;BMP280;47397;48.194;11.632;2023-07-13T04:55:18;95989.25;;;18.09
61595;BMP280;47397;48.194;11.632;2023-07-13T04:56:18;96000.38;;;18.10
61595;BMP280;47397;48.194;11.632;2023-07-13T04:57:18;95994.97;;;18.15
61595;BMP280;47397;48.194;11.632;2023-07-13T04:58:19;96001.63;;;18.19
61595;BMP280;47397;48.194;11.632;2023-07-13T04:59:19;96004.94;;;18.21
61595;BMP280;47397;48.194;11.632;2023-07-13T05:00:20;96004.50;;;18.30
61595;BMP280;47397;48.194;11.632;2023-07-13T05:01:20;96015.31;;;18.19
61595;BMP280;47397;48.194;11.632;2023-07-13T05:02:21;96006.94;;;18.16
61595;BMP280;47397;48.194;11.632;2023-07-13T05:03:21;96010.25;;;18.18
61595;BMP280;47397;48.194;11.632;2023-07-13T05:04:21;96010.56;;;18.11
61595;BMP280;47397;48.194;11.632;2023-07-13T05:05:22;95999.13;;;18.17
61595;BMP280;47397;48.194;11.632;2023-07-13T05:06:22;96015.09;;;18.24
61595;BMP280;47397;48.194;11.632;2023-07-13T05:07:22;96013.78;;;18.32
61595;BMP280;47397;48.194;11.632;2023-07-13T05:08:23;96023.56;;;18.26
61595;BMP280;47397;48.194;11.632;2023-07-13T05:09:25;96013.56;;;18.04
61595;BMP280;47397;48.194;11.632;2023-07-13T05:10:25;96019.03;;;18.13
61595;BMP280;47397;48.194;11.632;2023-07-13T05:11:26;96024.56;;;18.23
61595;BMP280;47397;48.194;11.632;2023-07-13T05:12:26;96018.06;;;18.16
61595;BMP280;47397;48.194;11.632;2023-07-13T05:13:27;96019.03;;;18.31
61595;BMP280;47397;48.194;11.632;2023-07-13T05:14:27;96023.34;;;18.30
61595;BMP280;47397;48.194;11.632;2023-07-13T05:15:28;96027.81;;;18.27
61595;BMP280;47397;48.194;11.632;2023-07-13T05:16:28;96024.59;;;18.06
61595;BMP280;47397;48.194;11.632;2023-07-13T05:17:29;96024.50;;;18.25
61595;BMP280;47397;48.194;11.632;2023-07-13T05:18:30;96023.56;;;18.26
61595;BMP280;47397;48.194;11.632;2023-07-13T05:19:30;96023.94;;;18.18
61595;BMP280;47397;48.194;11.632;2023-07-13T05:20:31;96019.19;;;18.10
61595;BMP280;47397;48.194;11.632;2023-07-13T05:21:31;96022.81;;;18.24
61595;BMP280;47397;48.194;11.632;2023-07-13T05:23:59;96022.50;;;18.30
61595;BMP280;47397;48.194;11.632;2023-07-13T05:25:10;96025.53;;;18.21
61595;BMP280;47397;48.194;11.632;2023-07-13T05:26:11;96022.22;;;18.19
61595;BMP280;47397;48.194;11.632;2023-07-13T05:27:11;96020.75;;;18.30
61595;BMP280;47397;48.194;11.632;2023-07-13T05:28:12;96025.25;;;18.27
61595;BMP280;47397;48.194;11.632;2023-07-13T05:29:12;96017.78;;;18.38
61595;BMP280;47397;48.194;11.632;2023-07-13T05:30:13;96017.13;;;18.34
61595;BMP280;47397;48.194;11.632;2023-07-13T05:31:13;96019.59;;;18.36
61595;BMP280;47397;48.194;11.632;2023-07-13T05:32:14;96016.88;;;18.39
61595;BMP280;47397;48.194;11.632;2023-07-13T05:33:14;96017.97;;;18.18
61595;BMP280;47397;48.194;11.632;2023-07-13T05:34:15;96021.47;;;18.17
61595;BMP280;47397;48.194;11.632;2023-07-13T05:35:15;96016.53;;;18.29
61595;BMP280;47397;48.194;11.632;2023-07-13T05:36:15;96020.00;;;18.28
61595;BMP280;47397;48.194;11.632;2023-07-13T05:37:16;96027.88;;;18.25
61595;BMP280;47397;48.194;11.632;2023-07-13T05:38:16;96027.50;;;18.16
61595;BMP280;47397;48.194;11.632;2023-07-13T05:39:17;96024.34;;;18.10
61595;BMP280;47397;48.194;11.632;2023-07-13T05:40:18;96025.41;;;18.24
61595;BMP280;47397;48.194;11.632;2023-07-13T05:41:19;96030.13;;;18.31
61595;BMP280;47397;48.194;11.632;2023-07-13T05:42:19;96022.34;;;18.33
61595;BMP280;47397;48.194;11.632;2023-07-13T05:43:20;96023.75;;;18.05
61595;BMP280;47397;48.194;11.632;2023-07-13T05:44:20;96028.75;;;18.08
61595;BMP280;47397;48.194;11.632;2023-07-13T05:45:20;96030.47;;;18.25
61595;BMP280;47397;48.194;11.632;2023-07-13T05:46:21;96029.63;;;18.25
61595;BMP280;47397;48.194;11.632;2023-07-13T05:47:22;96024.56;;;18.23
61595;BMP280;47397;48.194;11.632;2023-07-13T05:48:22;96028.63;;;18.27